createdAt,value
2022-10-10T00:10:05.665Z,100.00
2022-10-10T00:20:07.749Z,100.00
2022-10-10T00:30:10.824Z,100.00
2022-10-10T00:40:16.585Z,100.00
2022-10-10T00:50:21.955Z,100.00
2022-10-10T01:00:23.574Z,100.00
2022-10-10T01:10:26.802Z,100.00
2022-10-10T01:20:50.291Z,100.00
2022-10-10T01:30:53.900Z,100.00
2022-10-10T01:41:17.270Z,100.00
2022-10-10T01:51:34.067Z,100.00
2022-10-10T02:02:00.771Z,100.00
2022-10-10T02:12:04.112Z,100.00
2022-10-10T02:22:10.548Z,100.00
2022-10-10T02:32:24.457Z,100.00
2022-10-10T02:42:27.598Z,100.00
2022-10-10T02:52:30.377Z,100.00
2022-10-10T03:02:32.062Z,100.00
2022-10-10T03:12:35.941Z,100.00
2022-10-10T03:22:37.943Z,100.00
2022-10-10T03:32:40.612Z,100.00
2022-10-10T03:42:42.277Z,100.00
2022-10-10T03:52:43.975Z,100.00
2022-10-10T04:02:45.676Z,100.00
2022-10-10T04:12:51.797Z,100.00
2022-10-10T04:22:54.768Z,100.00
2022-10-10T04:32:58.351Z,100.00
2022-10-10T04:43:00.356Z,100.00
2022-10-10T04:53:02.053Z,100.00
2022-10-10T05:03:03.874Z,100.00
2022-10-10T05:13:11.680Z,100.00
2022-10-10T05:23:21.272Z,100.00
2022-10-10T05:33:23.266Z,100.00
2022-10-10T05:43:26.509Z,100.00
2022-10-10T05:53:30.800Z,100.00
2022-10-10T06:03:34.792Z,100.00
2022-10-10T06:13:39.968Z,100.00
2022-10-10T06:23:41.982Z,100.00
2022-10-10T06:33:46.086Z,100.00
2022-10-10T06:43:49.608Z,100.00
2022-10-10T06:53:51.342Z,100.00
2022-10-10T07:03:56.015Z,100.00
2022-10-10T07:13:57.731Z,100.00
2022-10-10T07:24:02.597Z,100.00
2022-10-10T07:34:06.202Z,96.59
2022-10-10T07:44:07.859Z,90.33
2022-10-10T07:54:10.364Z,83.33
2022-10-10T08:04:13.023Z,64.75
2022-10-10T08:14:15.707Z,56.17
2022-10-10T08:24:17.680Z,54.23
2022-10-10T08:34:21.461Z,51.28
2022-10-10T08:44:50.500Z,48.67
2022-10-10T08:54:58.306Z,45.82
2022-10-10T09:05:02.695Z,42.82
2022-10-10T09:15:15.575Z,41.56
2022-10-10T09:25:30.863Z,39.22
2022-10-10T09:35:37.851Z,40.34
2022-10-10T09:45:46.591Z,38.18
2022-10-10T09:55:50.052Z,37.86
2022-10-10T10:06:01.607Z,35.08
2022-10-10T10:16:11.387Z,33.65
2022-10-10T10:26:21.922Z,33.29
2022-10-10T10:36:46.876Z,29.81
2022-10-10T10:47:07.845Z,31.14
2022-10-10T10:57:40.635Z,27.60
2022-10-10T11:07:59.607Z,25.94
2022-10-10T11:18:14.103Z,25.33
2022-10-10T11:28:35.792Z,23.75
2022-10-10T11:38:46.267Z,22.24
2022-10-10T11:48:59.073Z,21.06
2022-10-10T11:59:15.881Z,22.81
2022-10-10T12:09:33.687Z,20.61
2022-10-10T12:19:36.064Z,23.36
2022-10-10T12:29:51.300Z,20.84
2022-10-10T12:40:18.830Z,18.65
2022-10-10T12:50:37.497Z,17.13
2022-10-10T13:00:47.671Z,22.19
2022-10-10T13:11:15.799Z,17.60
2022-10-10T13:21:35.783Z,19.54
2022-10-10T13:31:43.608Z,25.74
2022-10-10T13:41:48.969Z,26.31
2022-10-10T13:52:03.269Z,27.64
2022-10-10T14:02:14.411Z,30.76
2022-10-10T14:12:24.442Z,32.57
2022-10-10T14:22:27.696Z,34.28
2022-10-10T14:32:30.677Z,36.51
2022-10-10T14:42:35.907Z,36.89
2022-10-10T14:52:37.505Z,40.01
2022-10-10T15:02:45.454Z,40.85
2022-10-10T15:12:47.810Z,42.98
2022-10-10T15:22:49.538Z,44.69
2022-10-10T15:32:51.614Z,51.68
2022-10-10T15:42:55.215Z,50.21
2022-10-10T15:52:57.357Z,52.00
2022-10-10T16:02:58.913Z,52.75
2022-10-10T16:13:00.457Z,55.85
2022-10-10T16:23:02.201Z,60.17
2022-10-10T16:33:03.943Z,60.41
2022-10-10T16:43:05.794Z,66.05
2022-10-10T16:53:09.568Z,70.90
2022-10-10T17:03:11.245Z,73.37
2022-10-10T17:13:12.900Z,79.21
2022-10-10T17:23:16.412Z,80.93
2022-10-10T17:33:24.036Z,84.60
2022-10-10T17:43:25.952Z,91.78
2022-10-10T17:53:29.669Z,93.85
2022-10-10T18:03:32.085Z,100.00
2022-10-10T18:13:34.855Z,100.00
2022-10-10T18:23:37.171Z,100.00
2022-10-10T18:33:39.595Z,100.00
2022-10-10T18:43:42.632Z,100.00
2022-10-10T18:53:45.089Z,100.00
2022-10-10T19:03:46.746Z,100.00
2022-10-10T19:13:49.686Z,100.00
2022-10-10T19:23:51.362Z,100.00
2022-10-10T19:33:53.363Z,100.00
2022-10-10T19:43:58.174Z,100.00
2022-10-10T19:53:59.902Z,100.00
2022-10-10T20:04:04.125Z,100.00
2022-10-10T20:14:07.448Z,100.00
2022-10-10T20:24:12.287Z,100.00
2022-10-10T20:34:15.037Z,100.00
2022-10-10T20:44:17.012Z,100.00
2022-10-10T20:54:25.281Z,100.00
2022-10-10T21:04:36.815Z,100.00
2022-10-10T21:14:39.475Z,100.00
2022-10-10T21:24:48.105Z,100.00
2022-10-10T21:34:54.342Z,100.00
2022-10-10T21:45:04.113Z,100.00
2022-10-10T21:55:06.105Z,100.00
2022-10-10T22:05:11.308Z,100.00
2022-10-10T22:15:13.905Z,100.00
2022-10-10T22:25:19.252Z,100.00
2022-10-10T22:35:20.864Z,100.00
2022-10-10T22:45:23.576Z,100.00
2022-10-10T22:55:25.195Z,100.00
2022-10-10T23:05:28.845Z,100.00
2022-10-10T23:15:30.701Z,100.00
2022-10-10T23:25:32.318Z,100.00
2022-10-10T23:35:34.232Z,100.00
2022-10-10T23:45:35.787Z,100.00
2022-10-10T23:55:39.710Z,100.00
